Childress Municipal Airport Childress US
ICAO: KCDS
IATA: CDS
Category: Medium
Scheduled Services: No

Elevation: 1954 ft
TransAlt. 18000 ft.

Airport Communications:
ASOS:135.125
FORT WORTH CNTR:133.5
FORT WORTH RDO:122.45
CTAF/UNICOM:122.8

KCDS Zoom In..

Runways:

(A) RW 04 length 4425 ft width 60 ft
---- / hdg 41

(B) RW 18 length 5949 ft width 75 ft
---- / hdg 176

(C) RW 22 length 4425 ft width 60 ft
---- / hdg 221

(D) RW 36 length 5949 ft width 75 ft
---- / hdg 356

Location; KCDS
Day. 21 / Time. 05.53 Zulu
* Altimeter: 29.94
* Temperature: 30° c. 86°f.
* Wind from: 210° Speed 07 kn.
Dewpoint: 11° c.
Visibility: 10 Statute Miles.
Clouds: Clear (automated report).

KCDS 210553Z AUTO 21007KT 10SM CLR 30/11 A2994 RMK AO2 SLP103 T03000106 10411 20300 404280267 51017


Wind From 210°
Speed 07 kn.

 
 
jpsmedia.com for Web Design worldairports.se 2018   terms of use